Queets, Washington
Current Conditions -  °F | °C
As of 5:25 AM on Sunday 23 Nov 2014 (Local Time) from KUIL Reporting Station
Haze Haze  
Wind Chill: 50°   Ceiling: 1700
Heat Index: 50°   Visibility: 5mi
Dew Point: 49°   Wind: 7mph
Humidity: 96%   Direction: 230°SW
Pressure: 30.03"   Gusts: NA
Location:  47.9519°N, 124.29°W
Report Text: KUIL 231325Z AUTO 23006KT 5SM BR BKN017 BKN022 OVC047 10/09 A3003 RMK AO2 LTG DSNT SE RAE1258 P0000 T01000094
Loading
Personal Weather Stations






























Interactive Weather Map New forecast layout! Learn more

10-Day Weather Forecast

Advertisements
Track Severe Weather on mobile